← Previous July 20, 2024 3:06 PM

FTUS41 KBGM 191120
TAFITH
TAF
KITH 191120Z 1912/2012 31005KT P6SM SCT050
     FM192000 VRB03KT P6SM FEW250=